createdAt,value
2018-09-17T00:00:32.997Z,11.05
2018-09-17T00:01:33.008Z,11.15
2018-09-17T00:02:32.980Z,11.15
2018-09-17T00:03:32.964Z,11.04
2018-09-17T00:04:32.955Z,11.12
2018-09-17T00:05:32.978Z,11.07
2018-09-17T00:08:34.059Z,10.99
2018-09-17T00:09:32.899Z,11.02
2018-09-17T00:10:32.903Z,10.94
2018-09-17T00:11:32.916Z,10.97
2018-09-17T00:12:32.881Z,10.94
2018-09-17T00:14:33.999Z,10.94
2018-09-17T00:16:34.012Z,11.00
2018-09-17T00:19:33.979Z,10.96
2018-09-17T00:21:33.947Z,10.97
2018-09-17T00:24:33.899Z,10.84
2018-09-17T00:29:33.867Z,10.84
2018-09-17T00:31:33.856Z,10.79
2018-09-17T00:32:32.639Z,10.76
2018-09-17T00:35:33.756Z,10.72
2018-09-17T00:36:32.628Z,10.68
2018-09-17T00:37:32.585Z,10.63
2018-09-17T00:38:53.573Z,10.68
2018-09-17T00:42:33.726Z,10.63
2018-09-17T00:45:33.644Z,10.56
2018-09-17T00:46:32.486Z,10.59
2018-09-17T00:48:34.114Z,10.56
2018-09-17T00:49:32.440Z,10.53
2018-09-17T00:52:33.617Z,10.54
2018-09-17T00:53:32.400Z,10.48
2018-09-17T00:54:32.391Z,10.49
2018-09-17T00:55:32.375Z,10.48
2018-09-17T00:56:32.363Z,10.51
2018-09-17T00:57:32.376Z,10.44
2018-09-17T00:59:33.506Z,10.49
2018-09-17T01:02:34.108Z,10.44
2018-09-17T01:03:32.290Z,10.44
2018-09-17T01:04:32.280Z,10.44
2018-09-17T01:07:33.452Z,10.40
2018-09-17T01:08:32.229Z,10.34
2018-09-17T01:10:54.217Z,10.48
2018-09-17T01:11:32.203Z,10.31
2018-09-17T01:12:32.184Z,10.38
2018-09-17T01:13:32.199Z,10.37
2018-09-17T01:14:53.169Z,10.35
2018-09-17T01:15:32.159Z,10.38
2018-09-17T01:16:32.138Z,10.28
2018-09-17T01:17:32.128Z,10.22
2018-09-17T01:18:32.148Z,10.22
2018-09-17T01:19:32.114Z,10.26
2018-09-17T01:21:40.999Z,10.25
2018-09-17T01:23:41.999Z,10.23
2018-09-17T01:24:40.979Z,10.26
2018-09-17T01:25:40.950Z,10.30
2018-09-17T01:26:40.946Z,10.28
2018-09-17T01:27:40.931Z,10.25
2018-09-17T01:28:40.939Z,10.16
2018-09-17T01:29:40.932Z,10.19
2018-09-17T01:30:40.921Z,10.10
2018-09-17T01:31:40.893Z,10.19
2018-09-17T01:32:40.873Z,10.17
2018-09-17T01:33:40.893Z,10.15
2018-09-17T01:34:40.857Z,10.10
2018-09-17T01:35:40.848Z,10.09
2018-09-17T01:37:41.990Z,10.16
2018-09-17T01:38:40.826Z,10.10
2018-09-17T01:39:40.800Z,10.15
2018-09-17T01:40:40.791Z,10.10
2018-09-17T01:41:40.775Z,10.12
2018-09-17T01:43:41.908Z,10.15
2018-09-17T01:44:40.749Z,10.10
2018-09-17T01:45:40.726Z,10.13
2018-09-17T01:46:40.797Z,10.05
2018-09-17T01:47:40.706Z,10.13
2018-09-17T01:48:40.701Z,10.02
2018-09-17T01:49:40.750Z,10.04
2018-09-17T01:50:40.669Z,9.99
2018-09-17T01:51:40.663Z,9.98
2018-09-17T01:52:40.667Z,10.04
2018-09-17T01:53:40.660Z,10.05
2018-09-17T01:54:40.643Z,10.01
2018-09-17T01:55:40.651Z,9.97
2018-09-17T01:56:40.604Z,10.01
2018-09-17T01:57:40.593Z,9.99
2018-09-17T01:58:40.580Z,10.04
2018-09-17T01:59:40.589Z,10.01
2018-09-17T02:00:40.572Z,10.02
2018-09-17T02:01:40.545Z,10.02
2018-09-17T02:02:40.544Z,10.12
2018-09-17T02:03:40.538Z,10.20
2018-09-17T02:04:40.530Z,10.12
2018-09-17T02:05:40.508Z,10.12
2018-09-17T02:06:40.494Z,10.13
2018-09-17T02:07:40.487Z,10.19
2018-09-17T02:08:40.491Z,10.22
2018-09-17T02:09:40.489Z,10.23
2018-09-17T02:10:40.450Z,10.31
2018-09-17T02:11:40.448Z,10.26
2018-09-17T02:12:40.429Z,10.31
2018-09-17T02:13:40.418Z,10.30
2018-09-17T02:14:40.427Z,10.31
2018-09-17T02:15:40.410Z,10.25
2018-09-17T02:16:40.393Z,10.34
2018-09-17T02:17:40.376Z,10.37
2018-09-17T02:18:40.361Z,10.35
2018-09-17T02:19:40.378Z,10.33
2018-09-17T02:20:40.358Z,10.38
2018-09-17T02:21:40.322Z,10.38
2018-09-17T02:22:40.315Z,10.31
2018-09-17T02:23:40.301Z,10.41
2018-09-17T02:24:40.288Z,10.46
2018-09-17T02:25:40.299Z,10.49
2018-09-17T02:26:40.295Z,10.51
2018-09-17T02:27:40.262Z,10.57
2018-09-17T02:28:40.246Z,10.60
2018-09-17T02:29:40.268Z,10.63
2018-09-17T02:30:40.263Z,10.61
2018-09-17T02:31:40.213Z,10.69
2018-09-17T02:32:40.198Z,10.67
2018-09-17T02:33:40.194Z,10.69
2018-09-17T02:34:40.194Z,10.60
2018-09-17T02:35:40.187Z,10.63
2018-09-17T02:36:40.167Z,10.69
2018-09-17T02:38:41.273Z,10.68
2018-09-17T02:39:40.123Z,10.68
2018-09-17T02:40:40.138Z,10.63
2018-09-17T02:41:40.107Z,10.63
2018-09-17T02:42:40.089Z,10.71
2018-09-17T02:43:40.079Z,10.67
2018-09-17T02:44:40.077Z,10.69
2018-09-17T02:45:40.075Z,10.74
2018-09-17T02:46:40.046Z,10.68
2018-09-17T02:47:40.042Z,10.76
2018-09-17T02:48:40.042Z,10.74
2018-09-17T02:49:40.022Z,10.76
2018-09-17T02:50:40.013Z,10.76
2018-09-17T02:51:39.990Z,10.76
2018-09-17T02:52:39.977Z,10.76
2018-09-17T02:53:40.052Z,10.87
2018-09-17T02:54:40.010Z,10.82
2018-09-17T02:55:39.962Z,10.90
2018-09-17T02:56:39.933Z,10.79
2018-09-17T02:57:39.924Z,10.78
2018-09-17T02:58:39.912Z,10.81
2018-09-17T02:59:39.906Z,10.78
2018-09-17T03:00:39.903Z,10.76
2018-09-17T03:01:39.949Z,10.75
2018-09-17T03:02:39.868Z,10.75
2018-09-17T03:03:39.867Z,10.78
2018-09-17T03:04:39.844Z,10.75
2018-09-17T03:05:39.835Z,10.81
2018-09-17T03:06:39.832Z,10.78
2018-09-17T03:07:39.811Z,10.72
2018-09-17T03:08:39.799Z,10.68
2018-09-17T03:09:39.789Z,10.68
2018-09-17T03:10:39.788Z,10.69
2018-09-17T03:11:39.797Z,10.63
2018-09-17T03:12:39.776Z,10.64
2018-09-17T03:13:39.743Z,10.63
2018-09-17T03:14:39.726Z,10.63
2018-09-17T03:15:39.726Z,10.63
2018-09-17T03:16:39.732Z,10.54
2018-09-17T03:17:39.694Z,10.51
2018-09-17T03:18:39.689Z,10.48
2018-09-17T03:19:39.670Z,10.48
2018-09-17T03:20:39.661Z,10.46
2018-09-17T03:21:39.674Z,10.44
2018-09-17T03:22:39.671Z,10.44
2018-09-17T03:23:39.626Z,10.35
2018-09-17T03:24:39.733Z,10.38
2018-09-17T03:25:39.605Z,10.38
2018-09-17T03:26:39.613Z,10.48
2018-09-17T03:27:39.613Z,10.41
2018-09-17T03:28:39.575Z,10.41
2018-09-17T03:29:39.566Z,10.40
2018-09-17T03:30:39.551Z,10.48
2018-09-17T03:31:39.540Z,10.46
2018-09-17T03:32:39.561Z,10.42
2018-09-17T03:33:39.526Z,10.54
2018-09-17T03:34:39.509Z,10.51
2018-09-17T03:35:39.511Z,10.54
2018-09-17T03:36:39.482Z,10.44
2018-09-17T03:37:39.487Z,10.42
2018-09-17T03:38:39.456Z,10.53
2018-09-17T03:39:39.458Z,10.46
2018-09-17T03:40:39.440Z,10.48
2018-09-17T03:41:39.431Z,10.59
2018-09-17T03:42:39.428Z,10.60
2018-09-17T03:43:39.415Z,10.57
2018-09-17T03:44:39.393Z,10.61
2018-09-17T03:45:39.402Z,10.61
2018-09-17T03:46:39.479Z,10.56
2018-09-17T03:47:39.378Z,10.63
2018-09-17T03:49:40.512Z,10.61
2018-09-17T03:50:39.325Z,10.72
2018-09-17T03:51:39.330Z,10.76
2018-09-17T03:52:39.315Z,10.76
2018-09-17T03:53:39.294Z,10.76
2018-09-17T03:54:39.291Z,10.75
2018-09-17T03:55:39.271Z,10.82
2018-09-17T03:56:39.255Z,10.75
2018-09-17T03:57:39.268Z,10.87
2018-09-17T03:58:39.251Z,10.86
2018-09-17T03:59:39.224Z,10.90
2018-09-17T04:00:39.214Z,10.87
2018-09-17T04:01:39.202Z,10.92
2018-09-17T04:02:39.215Z,10.90
2018-09-17T04:03:39.175Z,10.89
2018-09-17T04:04:39.166Z,10.93
2018-09-17T04:05:39.158Z,10.92
2018-09-17T04:06:39.151Z,10.87
2018-09-17T04:07:39.153Z,10.87
2018-09-17T04:08:39.162Z,10.89
2018-09-17T04:09:39.116Z,10.97
2018-09-17T04:10:39.098Z,10.94
2018-09-17T04:11:39.098Z,11.00
2018-09-17T04:12:39.081Z,11.05
2018-09-17T04:13:39.097Z,11.02
2018-09-17T04:15:39.047Z,11.12
2018-09-17T04:16:39.046Z,11.14
2018-09-17T04:17:39.021Z,11.11
2018-09-17T04:18:39.077Z,11.08
2018-09-17T04:19:39.000Z,11.14
2018-09-17T04:20:38.993Z,11.12
2018-09-17T04:21:38.994Z,11.11
2018-09-17T04:22:38.963Z,11.18
2018-09-17T04:23:38.950Z,11.26
2018-09-17T04:24:38.958Z,11.22
2018-09-17T04:25:38.939Z,11.22
2018-09-17T04:26:38.922Z,11.22
2018-09-17T04:27:38.920Z,11.23
2018-09-17T04:28:38.902Z,11.23
2018-09-17T04:29:38.898Z,11.18
2018-09-17T04:30:38.874Z,11.23
2018-09-17T04:31:38.920Z,11.27
2018-09-17T04:32:38.850Z,11.27
2018-09-17T04:33:38.854Z,11.22
2018-09-17T04:34:38.854Z,11.27
2018-09-17T04:35:38.813Z,11.32
2018-09-17T04:37:39.946Z,11.26
2018-09-17T04:38:38.804Z,11.26
2018-09-17T04:39:38.857Z,11.33
2018-09-17T04:40:38.757Z,11.27
2018-09-17T04:41:38.751Z,11.40
2018-09-17T04:42:38.738Z,11.35
2018-09-17T04:43:38.729Z,11.32
2018-09-17T04:44:38.752Z,11.40
2018-09-17T04:45:38.711Z,11.36
2018-09-17T04:46:38.703Z,11.44
2018-09-17T04:47:38.684Z,11.30
2018-09-17T04:48:38.667Z,11.36
2018-09-17T04:49:38.686Z,11.36
2018-09-17T04:50:38.649Z,11.35
2018-09-17T04:51:38.638Z,11.36
2018-09-17T04:52:38.636Z,11.40
2018-09-17T04:53:38.619Z,11.33
2018-09-17T04:54:38.639Z,11.40
2018-09-17T04:55:38.593Z,11.40
2018-09-17T04:56:38.580Z,11.36
2018-09-17T04:57:38.573Z,11.37
2018-09-17T04:58:38.555Z,11.32
2018-09-17T04:59:38.565Z,11.41
2018-09-17T05:00:38.541Z,11.35
2018-09-17T05:01:38.536Z,11.40
2018-09-17T05:02:38.510Z,11.37
2018-09-17T05:03:38.495Z,11.40
2018-09-17T05:04:38.509Z,11.35
2018-09-17T05:05:38.491Z,11.41
2018-09-17T05:06:38.484Z,11.32
2018-09-17T05:07:38.473Z,11.43
2018-09-17T05:08:38.453Z,11.32
2018-09-17T05:09:38.431Z,11.45
2018-09-17T05:10:38.436Z,11.41
2018-09-17T05:11:38.418Z,11.47
2018-09-17T05:12:38.402Z,11.44
2018-09-17T05:13:38.387Z,11.48
2018-09-17T05:14:38.380Z,11.48
2018-09-17T05:15:38.419Z,11.48
2018-09-17T05:16:38.381Z,11.45
2018-09-17T05:17:38.365Z,11.45
2018-09-17T05:18:38.329Z,11.47
2018-09-17T05:19:38.320Z,11.47
2018-09-17T05:20:38.337Z,11.47
2018-09-17T05:21:38.371Z,11.54
2018-09-17T05:22:38.284Z,11.47
2018-09-17T05:23:38.310Z,11.41
2018-09-17T05:24:38.266Z,11.45
2018-09-17T05:25:38.251Z,11.52
2018-09-17T05:26:38.275Z,11.50
2018-09-17T05:27:38.232Z,11.47
2018-09-17T05:28:38.233Z,11.51
2018-09-17T05:29:38.207Z,11.59
2018-09-17T05:30:38.213Z,11.51
2018-09-17T05:31:38.216Z,11.51
2018-09-17T05:32:38.171Z,11.59
2018-09-17T05:33:38.174Z,11.59
2018-09-17T05:34:38.153Z,11.62
2018-09-17T05:35:38.135Z,11.60
2018-09-17T05:36:38.157Z,11.63
2018-09-17T05:37:38.116Z,11.57
2018-09-17T05:38:38.113Z,11.57
2018-09-17T05:39:38.098Z,11.62
2018-09-17T05:40:38.094Z,11.55
2018-09-17T05:41:38.091Z,11.55
2018-09-17T05:42:38.085Z,11.57
2018-09-17T05:43:38.049Z,11.57
2018-09-17T05:44:38.038Z,11.55
2018-09-17T05:45:38.024Z,11.55
2018-09-17T05:46:38.010Z,11.62
2018-09-17T05:47:38.023Z,11.60
2018-09-17T05:48:37.988Z,11.59
2018-09-17T05:49:37.991Z,11.65
2018-09-17T05:50:37.983Z,11.62
2018-09-17T05:51:37.961Z,11.65
2018-09-17T05:52:37.980Z,11.60
2018-09-17T05:53:37.965Z,11.69
2018-09-17T05:54:37.934Z,11.65
2018-09-17T05:55:37.915Z,11.73
2018-09-17T05:56:37.902Z,11.75
2018-09-17T05:57:37.892Z,11.70
2018-09-17T05:58:37.903Z,11.68
2018-09-17T05:59:37.926Z,11.72
2018-09-17T06:00:37.860Z,11.70
2018-09-17T06:01:37.843Z,11.70
2018-09-17T06:02:37.852Z,11.77
2018-09-17T06:03:37.867Z,11.78
2018-09-17T06:04:37.804Z,11.83
2018-09-17T06:05:37.898Z,11.78
2018-09-17T06:06:37.823Z,11.75
2018-09-17T06:07:37.778Z,11.80
2018-09-17T06:08:37.784Z,11.87
2018-09-17T06:09:37.783Z,11.78
2018-09-17T06:10:37.735Z,11.94
2018-09-17T06:11:37.739Z,11.97
2018-09-17T06:12:37.720Z,11.91
2018-09-17T06:13:37.730Z,11.84
2018-09-17T06:14:37.762Z,11.80
2018-09-17T06:15:37.686Z,11.86
2018-09-17T06:16:37.679Z,11.88
2018-09-17T06:17:37.656Z,11.94
2018-09-17T06:18:37.672Z,11.94
2018-09-17T06:19:37.633Z,11.97
2018-09-17T06:20:37.621Z,12.00
2018-09-17T06:21:37.619Z,11.99
2018-09-17T06:22:37.605Z,12.03
2018-09-17T06:23:37.602Z,12.09
2018-09-17T06:24:37.575Z,12.04
2018-09-17T06:25:37.568Z,12.09
2018-09-17T06:26:37.588Z,12.12
2018-09-17T06:27:37.549Z,12.10
2018-09-17T06:28:37.629Z,12.17
2018-09-17T06:29:37.530Z,12.17
2018-09-17T06:30:37.510Z,12.22
2018-09-17T06:32:38.621Z,12.32
2018-09-17T06:33:37.476Z,12.31
2018-09-17T06:34:37.490Z,12.35
2018-09-17T06:35:37.494Z,12.46
2018-09-17T06:36:37.439Z,12.42
2018-09-17T06:37:37.467Z,12.46
2018-09-17T06:38:37.423Z,12.60
2018-09-17T06:39:37.431Z,12.58
2018-09-17T06:40:37.399Z,12.62
2018-09-17T06:41:37.423Z,12.67
2018-09-17T06:42:37.415Z,12.75
2018-09-17T06:43:37.364Z,12.83
2018-09-17T06:44:37.388Z,12.93
2018-09-17T06:45:37.347Z,12.95
2018-09-17T06:46:37.336Z,12.94
2018-09-17T06:47:37.317Z,13.04
2018-09-17T06:48:37.308Z,13.12
2018-09-17T06:49:37.314Z,13.23
2018-09-17T06:50:37.286Z,13.15
2018-09-17T06:51:37.287Z,13.27
2018-09-17T06:52:37.288Z,13.33
2018-09-17T06:53:37.301Z,13.35
2018-09-17T06:54:37.273Z,13.38
2018-09-17T06:55:37.231Z,13.38
2018-09-17T06:56:37.275Z,13.49
2018-09-17T06:57:37.212Z,13.41
2018-09-17T06:58:37.196Z,13.47
2018-09-17T06:59:37.199Z,13.54
2018-09-17T07:00:37.188Z,13.67
2018-09-17T07:01:37.172Z,13.67
2018-09-17T07:02:37.157Z,13.65
2018-09-17T07:03:37.144Z,13.74
2018-09-17T07:04:37.155Z,13.83
2018-09-17T07:05:37.134Z,13.89
2018-09-17T07:06:37.104Z,13.92
2018-09-17T07:07:37.100Z,14.08
2018-09-17T07:08:37.091Z,14.00
2018-09-17T07:09:37.073Z,14.14
2018-09-17T07:10:37.097Z,14.20
2018-09-17T07:11:37.050Z,14.30
2018-09-17T07:12:37.040Z,14.33
2018-09-17T07:13:37.026Z,14.44
2018-09-17T07:14:37.029Z,14.51
2018-09-17T07:15:37.055Z,14.66
2018-09-17T07:16:36.995Z,14.79
2018-09-17T07:17:36.988Z,14.82
2018-09-17T07:18:36.978Z,14.91
2018-09-17T07:19:36.979Z,14.96
2018-09-17T07:20:36.978Z,15.00
2018-09-17T07:21:36.969Z,14.99
2018-09-17T07:22:36.931Z,15.06
2018-09-17T07:23:36.915Z,15.15
2018-09-17T07:24:36.910Z,15.22
2018-09-17T07:25:36.937Z,15.31
2018-09-17T07:26:36.882Z,15.39
2018-09-17T07:27:36.869Z,15.44
2018-09-17T07:28:36.858Z,15.52
2018-09-17T07:29:36.861Z,15.62
2018-09-17T07:30:36.843Z,15.65
2018-09-17T07:31:36.854Z,15.72
2018-09-17T07:32:36.840Z,15.80
2018-09-17T07:33:36.825Z,15.90
2018-09-17T07:34:36.791Z,15.88
2018-09-17T07:35:36.779Z,15.94
2018-09-17T07:36:36.883Z,15.92
2018-09-17T07:37:36.756Z,16.00
2018-09-17T07:38:36.753Z,16.15
2018-09-17T07:39:36.734Z,16.20
2018-09-17T07:40:36.733Z,16.13
2018-09-17T07:41:36.752Z,16.16
2018-09-17T07:42:36.711Z,16.23
2018-09-17T07:43:36.690Z,16.17
2018-09-17T07:44:36.682Z,16.17
2018-09-17T07:45:36.678Z,16.21
2018-09-17T07:46:36.692Z,16.29
2018-09-17T07:47:36.659Z,16.41
2018-09-17T07:48:36.650Z,16.31
2018-09-17T07:49:36.648Z,16.43
2018-09-17T07:50:36.616Z,16.47
2018-09-17T07:51:36.641Z,16.49
2018-09-17T07:52:36.590Z,16.51
2018-09-17T07:53:36.611Z,16.60
2018-09-17T07:54:36.570Z,16.75
2018-09-17T07:55:36.555Z,16.89
2018-09-17T07:56:36.631Z,16.99
2018-09-17T07:57:36.537Z,17.05
2018-09-17T07:58:36.523Z,17.20
2018-09-17T07:59:36.524Z,17.19
2018-09-17T08:00:36.502Z,17.39
2018-09-17T08:01:36.510Z,17.60
2018-09-17T08:02:36.498Z,17.86
2018-09-17T08:03:36.464Z,18.15
2018-09-17T08:04:36.463Z,18.33
2018-09-17T08:05:36.487Z,18.50
2018-09-17T08:06:36.477Z,18.74
2018-09-17T08:07:36.422Z,18.83
2018-09-17T08:08:36.411Z,19.00
2018-09-17T08:09:36.398Z,19.15
2018-09-17T08:10:36.391Z,19.30
2018-09-17T08:11:36.383Z,19.24
2018-09-17T08:12:36.389Z,19.44
2018-09-17T08:13:36.360Z,19.52
2018-09-17T08:14:36.361Z,19.59
2018-09-17T08:15:36.333Z,19.81
2018-09-17T08:16:36.341Z,20.03
2018-09-17T08:17:36.356Z,20.34
2018-09-17T08:18:36.300Z,20.56
2018-09-17T08:19:36.300Z,20.99
2018-09-17T08:20:36.282Z,21.39
2018-09-17T08:21:36.270Z,21.42
2018-09-17T08:22:36.293Z,21.72
2018-09-17T08:23:36.255Z,22.23
2018-09-17T08:24:36.293Z,22.47
2018-09-17T08:25:36.346Z,22.68
2018-09-17T08:26:36.215Z,22.84
2018-09-17T08:27:36.244Z,22.96
2018-09-17T08:28:36.208Z,22.85
2018-09-17T08:29:36.181Z,22.78
2018-09-17T08:30:36.165Z,22.62
2018-09-17T08:31:36.168Z,22.50
2018-09-17T08:32:36.170Z,22.23
2018-09-17T08:33:36.164Z,22.22
2018-09-17T08:34:36.121Z,22.15
2018-09-17T08:35:36.142Z,22.13
2018-09-17T08:36:36.104Z,22.17
2018-09-17T08:37:36.095Z,22.11
2018-09-17T08:38:36.141Z,22.13
2018-09-17T08:39:36.084Z,21.76
2018-09-17T08:40:36.059Z,21.35
2018-09-17T08:41:36.064Z,21.37
2018-09-17T08:42:36.049Z,21.57
2018-09-17T08:43:36.049Z,21.62
2018-09-17T08:44:36.023Z,22.14
2018-09-17T08:45:36.056Z,22.13
2018-09-17T08:46:36.035Z,21.95
2018-09-17T08:47:35.986Z,21.76
2018-09-17T08:48:35.994Z,21.79
2018-09-17T08:49:35.959Z,21.62
2018-09-17T08:50:35.956Z,21.64
2018-09-17T08:51:35.944Z,21.92
2018-09-17T08:52:35.944Z,22.18
2018-09-17T08:53:35.945Z,22.26
2018-09-17T08:54:35.911Z,22.44
2018-09-17T08:55:35.925Z,22.48
2018-09-17T08:56:35.885Z,22.69
2018-09-17T08:57:35.873Z,22.60
2018-09-17T08:58:35.879Z,22.60
2018-09-17T08:59:35.850Z,22.59
2018-09-17T09:00:35.873Z,22.78
2018-09-17T09:01:35.839Z,22.68
2018-09-17T09:02:35.828Z,22.63
2018-09-17T09:03:35.834Z,22.48
2018-09-17T09:04:35.817Z,22.28
2018-09-17T09:05:35.784Z,22.15
2018-09-17T09:06:35.788Z,21.92
2018-09-17T09:07:35.770Z,21.92
2018-09-17T09:08:35.779Z,21.85
2018-09-17T09:09:35.769Z,21.88
2018-09-17T09:10:35.737Z,21.82
2018-09-17T09:11:35.723Z,21.96
2018-09-17T09:12:35.713Z,22.32
2018-09-17T09:13:35.760Z,22.47
2018-09-17T09:14:35.702Z,22.73
2018-09-17T09:15:35.679Z,23.10
2018-09-17T09:16:35.676Z,23.10
2018-09-17T09:17:35.658Z,23.17
2018-09-17T09:18:35.663Z,23.23
2018-09-17T09:19:35.741Z,23.37
2018-09-17T09:20:35.655Z,23.74
2018-09-17T09:21:35.618Z,23.62
2018-09-17T09:22:35.608Z,23.74
2018-09-17T09:23:35.591Z,23.73
2018-09-17T09:24:35.595Z,23.76
2018-09-17T09:25:35.589Z,23.66
2018-09-17T09:26:35.567Z,23.48
2018-09-17T09:27:35.560Z,23.58
2018-09-17T09:28:35.563Z,23.63
2018-09-17T09:29:35.540Z,23.58
2018-09-17T09:30:35.531Z,23.55
2018-09-17T09:31:35.516Z,23.50
2018-09-17T09:32:35.503Z,23.48
2018-09-17T09:33:35.487Z,23.41
2018-09-17T09:34:35.504Z,23.36
2018-09-17T09:35:35.498Z,23.27
2018-09-17T09:36:35.460Z,23.28
2018-09-17T09:37:35.443Z,23.31
2018-09-17T09:38:35.437Z,23.27
2018-09-17T09:39:35.424Z,23.21
2018-09-17T09:40:35.428Z,23.10
2018-09-17T09:41:35.408Z,22.91
2018-09-17T09:42:35.393Z,22.78
2018-09-17T09:43:35.380Z,22.70
2018-09-17T09:44:35.413Z,22.65
2018-09-17T09:45:35.375Z,22.73
2018-09-17T09:46:35.344Z,22.63
2018-09-17T09:47:35.342Z,22.75
2018-09-17T09:48:35.393Z,22.98
2018-09-17T09:49:35.317Z,23.00
2018-09-17T09:50:35.329Z,23.12
2018-09-17T09:51:35.299Z,23.17
2018-09-17T09:52:35.321Z,23.25
2018-09-17T09:53:35.282Z,23.24
2018-09-17T09:54:35.264Z,23.46
2018-09-17T09:55:35.246Z,23.65
2018-09-17T09:56:35.266Z,23.76
2018-09-17T09:57:35.245Z,23.77
2018-09-17T09:58:35.235Z,23.88
2018-09-17T09:59:35.209Z,23.78
2018-09-17T10:00:35.208Z,23.71
2018-09-17T10:01:35.283Z,23.78
2018-09-17T10:02:35.181Z,23.71
2018-09-17T10:03:35.165Z,23.74
2018-09-17T10:04:35.229Z,23.73
2018-09-17T10:05:35.141Z,23.65
2018-09-17T10:06:35.412Z,23.55
2018-09-17T10:07:35.116Z,23.86
2018-09-17T10:08:35.112Z,23.74
2018-09-17T10:09:35.096Z,23.84
2018-09-17T10:10:35.101Z,23.87
2018-09-17T10:11:35.137Z,23.99
2018-09-17T10:12:35.097Z,23.80
2018-09-17T10:13:35.066Z,23.96
2018-09-17T10:14:35.061Z,23.95
2018-09-17T10:15:35.034Z,24.01
2018-09-17T10:16:35.019Z,24.16
2018-09-17T10:17:35.027Z,24.33
2018-09-17T10:18:35.004Z,24.16
2018-09-17T10:19:34.995Z,24.21
2018-09-17T10:20:34.978Z,24.10
2018-09-17T10:21:34.978Z,24.30
2018-09-17T10:22:34.979Z,24.35
2018-09-17T10:23:34.956Z,24.32
2018-09-17T10:24:34.942Z,24.36
2018-09-17T10:25:34.934Z,24.36
2018-09-17T10:26:34.908Z,24.47
2018-09-17T10:27:34.954Z,24.47
2018-09-17T10:28:34.888Z,24.43
2018-09-17T10:29:34.879Z,24.36
2018-09-17T10:30:34.867Z,24.39
2018-09-17T10:31:34.853Z,24.45
2018-09-17T10:32:34.893Z,24.73
2018-09-17T10:33:34.838Z,24.99
2018-09-17T10:34:34.825Z,24.95
2018-09-17T10:35:34.812Z,25.08
2018-09-17T10:36:34.810Z,24.93
2018-09-17T10:37:34.834Z,25.01
2018-09-17T10:38:34.789Z,25.14
2018-09-17T10:39:34.817Z,25.14
2018-09-17T10:40:34.783Z,25.41
2018-09-17T10:41:34.754Z,25.43
2018-09-17T10:42:34.793Z,25.51
2018-09-17T10:43:34.870Z,25.51
2018-09-17T10:44:34.907Z,25.60
2018-09-17T10:45:34.709Z,25.69
2018-09-17T10:46:34.712Z,25.85
2018-09-17T10:47:34.712Z,25.96
2018-09-17T10:48:34.777Z,25.90
2018-09-17T10:49:34.709Z,25.75
2018-09-17T10:50:34.680Z,25.70
2018-09-17T10:51:34.670Z,25.63
2018-09-17T10:52:34.637Z,25.58
2018-09-17T10:53:34.657Z,25.43
2018-09-17T10:54:34.624Z,25.44
2018-09-17T10:55:34.611Z,25.47
2018-09-17T10:56:34.603Z,25.59
2018-09-17T10:57:34.619Z,25.53
2018-09-17T10:58:34.597Z,25.59
2018-09-17T10:59:34.577Z,25.54
2018-09-17T11:00:34.734Z,25.31
2018-09-17T11:01:34.543Z,25.16
2018-09-17T11:02:34.967Z,25.06
2018-09-17T11:03:34.545Z,25.13
2018-09-17T11:04:34.512Z,25.16
2018-09-17T11:05:34.518Z,25.03
2018-09-17T11:06:34.487Z,24.99
2018-09-17T11:07:34.489Z,24.98
2018-09-17T11:08:34.502Z,25.11
2018-09-17T11:09:34.466Z,25.13
2018-09-17T11:10:34.469Z,25.21
2018-09-17T11:11:34.447Z,25.13
2018-09-17T11:12:34.425Z,25.16
2018-09-17T11:13:34.451Z,25.18
2018-09-17T11:14:34.405Z,25.16
2018-09-17T11:15:34.398Z,25.26
2018-09-17T11:16:34.386Z,25.14
2018-09-17T11:17:34.434Z,25.03
2018-09-17T11:18:34.358Z,25.03
2018-09-17T11:19:34.380Z,25.07
2018-09-17T11:20:34.376Z,24.81
2018-09-17T11:21:34.343Z,24.77
2018-09-17T11:22:34.323Z,24.81
2018-09-17T11:23:34.321Z,24.78
2018-09-17T11:24:34.325Z,24.95
2018-09-17T11:25:34.285Z,24.78
2018-09-17T11:26:34.284Z,24.76
2018-09-17T11:27:34.293Z,24.76
2018-09-17T11:28:34.258Z,24.76
2018-09-17T11:29:34.271Z,24.60
2018-09-17T11:30:34.241Z,24.61
2018-09-17T11:31:34.269Z,24.53
2018-09-17T11:32:34.224Z,24.61
2018-09-17T11:33:34.237Z,24.60
2018-09-17T11:34:34.247Z,24.77
2018-09-17T11:35:34.176Z,24.78
2018-09-17T11:36:34.177Z,24.84
2018-09-17T11:37:34.159Z,24.84
2018-09-17T11:38:34.166Z,24.81
2018-09-17T11:39:34.167Z,24.85
2018-09-17T11:40:34.121Z,24.88
2018-09-17T11:41:34.122Z,24.55
2018-09-17T11:42:34.113Z,24.54
2018-09-17T11:43:34.129Z,24.51
2018-09-17T11:47:06.988Z,24.50
2018-09-17T11:47:44.913Z,24.57
2018-09-17T11:48:44.892Z,24.60
2018-09-17T11:49:44.903Z,24.57
2018-09-17T11:50:44.873Z,24.50
2018-09-17T11:51:44.857Z,24.58
2018-09-17T11:52:44.946Z,24.58
2018-09-17T11:53:44.829Z,24.76
2018-09-17T11:54:44.823Z,24.93
2018-09-17T11:55:44.827Z,25.13
2018-09-17T11:56:44.810Z,25.16
2018-09-17T11:57:44.790Z,25.26
2018-09-17T11:58:44.784Z,25.18
2018-09-17T11:59:44.765Z,25.16
2018-09-17T12:00:44.802Z,25.03
2018-09-17T12:01:44.821Z,24.92
2018-09-17T12:02:44.737Z,24.89
2018-09-17T12:03:44.725Z,24.84
2018-09-17T12:04:44.724Z,24.92
2018-09-17T12:05:44.740Z,24.86
2018-09-17T12:06:44.694Z,24.98
2018-09-17T12:07:44.684Z,24.91
2018-09-17T12:08:44.672Z,24.93
2018-09-17T12:09:44.679Z,24.99
2018-09-17T12:10:44.669Z,25.13
2018-09-17T12:11:44.643Z,25.16
2018-09-17T12:12:44.634Z,25.23
2018-09-17T12:13:44.628Z,25.28
2018-09-17T12:14:44.609Z,25.33
2018-09-17T12:15:44.631Z,25.31
2018-09-17T12:16:44.587Z,25.40
2018-09-17T12:17:44.576Z,25.38
2018-09-17T12:18:44.563Z,25.40
2018-09-17T12:19:44.550Z,25.14
2018-09-17T12:20:44.558Z,25.28
2018-09-17T12:21:44.547Z,25.36
2018-09-17T12:22:44.524Z,25.31
2018-09-17T12:23:44.537Z,25.36
2018-09-17T12:24:44.505Z,25.51
2018-09-17T12:25:44.485Z,25.55
2018-09-17T12:26:44.495Z,25.35
2018-09-17T12:27:44.467Z,25.46
2018-09-17T12:28:44.458Z,25.48
2018-09-17T12:29:44.454Z,25.54
2018-09-17T12:30:44.440Z,25.58
2018-09-17T12:31:44.451Z,25.68
2018-09-17T12:32:44.408Z,25.78
2018-09-17T12:33:44.438Z,25.91
2018-09-17T12:34:44.420Z,25.95
2018-09-17T12:35:44.385Z,25.85
2018-09-17T12:36:44.398Z,25.83
2018-09-17T12:37:44.365Z,25.90
2018-09-17T12:38:44.350Z,25.96
2018-09-17T12:39:44.342Z,25.68
2018-09-17T12:40:44.345Z,25.69
2018-09-17T12:41:44.339Z,25.73
2018-09-17T12:42:44.304Z,25.80
2018-09-17T12:43:44.296Z,25.90
2018-09-17T12:44:44.299Z,25.81
2018-09-17T12:45:44.280Z,25.84
2018-09-17T12:46:44.277Z,25.85
2018-09-17T12:47:44.281Z,25.90
2018-09-17T12:48:44.241Z,25.93
2018-09-17T12:49:44.228Z,25.91
2018-09-17T12:50:44.227Z,25.87
2018-09-17T12:51:44.210Z,25.98
2018-09-17T12:52:44.201Z,25.88
2018-09-17T12:53:44.207Z,26.02
2018-09-17T12:54:44.179Z,26.05
2018-09-17T12:55:44.203Z,26.10
2018-09-17T12:56:44.155Z,26.03
2018-09-17T12:57:44.164Z,25.96
2018-09-17T12:58:44.148Z,25.88
2018-09-17T12:59:44.135Z,26.02
2018-09-17T13:00:44.113Z,26.00
2018-09-17T13:01:44.103Z,26.00
2018-09-17T13:02:44.112Z,25.95
2018-09-17T13:03:44.092Z,26.07
2018-09-17T13:04:44.070Z,26.06
2018-09-17T13:05:44.065Z,26.15
2018-09-17T13:06:44.043Z,25.90
2018-09-17T13:07:44.083Z,25.84
2018-09-17T13:08:44.024Z,25.83
2018-09-17T13:09:44.019Z,25.88
2018-09-17T13:10:44.006Z,25.98
2018-09-17T13:11:43.991Z,25.95
2018-09-17T13:12:43.998Z,26.00
2018-09-17T13:13:44.005Z,25.90
2018-09-17T13:14:43.986Z,25.90
2018-09-17T13:15:43.952Z,25.96
2018-09-17T13:16:43.971Z,25.91
2018-09-17T13:17:43.968Z,26.05
2018-09-17T13:18:43.964Z,26.09
2018-09-17T13:19:43.902Z,26.16
2018-09-17T13:20:43.921Z,26.21
2018-09-17T13:21:43.900Z,26.02
2018-09-17T13:22:43.883Z,25.99
2018-09-17T13:23:43.894Z,26.09
2018-09-17T13:24:43.869Z,26.06
2018-09-17T13:25:43.870Z,26.22
2018-09-17T13:26:43.841Z,26.25
2018-09-17T13:27:43.832Z,26.38
2018-09-17T13:28:43.842Z,26.41
2018-09-17T13:29:43.796Z,26.38
2018-09-17T13:30:43.846Z,26.18
2018-09-17T13:31:43.820Z,26.22
2018-09-17T13:32:43.773Z,26.22
2018-09-17T13:33:43.804Z,26.22